createdAt,value
2022-10-17T00:00:20.871Z,17.75
2022-10-17T00:01:52.498Z,17.78
2022-10-17T00:03:24.235Z,17.80
2022-10-17T00:04:55.831Z,17.81
2022-10-17T00:06:28.830Z,17.83
2022-10-17T00:08:00.468Z,17.84
2022-10-17T00:09:32.124Z,17.85
2022-10-17T00:11:05.887Z,17.84
2022-10-17T00:12:37.531Z,17.84
2022-10-17T00:14:09.177Z,17.85
2022-10-17T00:15:44.404Z,17.86
2022-10-17T00:17:16.204Z,17.86
2022-10-17T00:18:47.834Z,17.84
2022-10-17T00:20:19.678Z,17.85
2022-10-17T00:21:52.725Z,17.86
2022-10-17T00:23:26.047Z,17.86
2022-10-17T00:24:57.668Z,17.88
2022-10-17T00:26:32.285Z,17.86
2022-10-17T00:28:04.205Z,17.86
2022-10-17T00:29:35.812Z,17.85
2022-10-17T00:31:07.559Z,17.86
2022-10-17T00:32:39.725Z,17.87
2022-10-17T00:34:11.395Z,17.86
2022-10-17T00:35:42.974Z,17.85
2022-10-17T00:37:16.544Z,17.84
2022-10-17T00:38:51.878Z,17.81
2022-10-17T00:40:23.906Z,17.80
2022-10-17T00:41:55.487Z,17.80
2022-10-17T00:43:27.883Z,17.80
2022-10-17T00:45:14.804Z,17.76
2022-10-17T00:46:47.691Z,17.76
2022-10-17T00:48:22.646Z,17.76
2022-10-17T00:49:55.087Z,17.76
2022-10-17T00:51:32.890Z,17.74
2022-10-17T00:53:09.356Z,17.71
2022-10-17T00:54:44.462Z,17.69
2022-10-17T00:56:17.068Z,17.68
2022-10-17T00:57:48.990Z,17.66
2022-10-17T00:59:23.085Z,17.65
2022-10-17T01:00:54.702Z,17.65
2022-10-17T01:02:26.766Z,17.65
2022-10-17T01:03:58.876Z,17.62
2022-10-17T01:05:30.822Z,17.60
2022-10-17T01:07:02.527Z,17.60
2022-10-17T01:08:35.863Z,17.59
2022-10-17T01:10:09.050Z,17.57
2022-10-17T01:11:49.841Z,17.57
2022-10-17T01:13:27.967Z,17.56
2022-10-17T01:15:11.066Z,17.55
2022-10-17T01:16:49.057Z,17.56
2022-10-17T01:18:36.828Z,17.58
2022-10-17T01:20:41.682Z,17.58
2022-10-17T01:22:22.297Z,17.55
2022-10-17T01:24:32.602Z,17.53
2022-10-17T01:26:19.100Z,17.52
2022-10-17T01:28:10.241Z,17.54
2022-10-17T01:30:00.157Z,17.53
2022-10-17T01:31:38.891Z,17.54
2022-10-17T01:33:14.861Z,17.55
2022-10-17T01:34:53.800Z,17.56
2022-10-17T01:36:36.335Z,17.55
2022-10-17T01:38:13.048Z,17.55
2022-10-17T01:39:50.753Z,17.58
2022-10-17T01:41:32.503Z,17.59
2022-10-17T01:43:11.657Z,17.60
2022-10-17T01:44:48.270Z,17.61
2022-10-17T01:46:25.006Z,17.61
2022-10-17T01:48:03.140Z,17.61
2022-10-17T01:49:37.527Z,17.58
2022-10-17T01:51:13.552Z,17.58
2022-10-17T01:52:50.548Z,17.58
2022-10-17T01:54:26.507Z,17.58
2022-10-17T01:56:01.082Z,17.59
2022-10-17T01:57:37.914Z,17.58
2022-10-17T01:59:13.647Z,17.57
2022-10-17T02:00:46.749Z,17.56
2022-10-17T02:02:20.578Z,17.56
2022-10-17T02:03:57.305Z,17.55
2022-10-17T02:05:33.517Z,17.57
2022-10-17T02:07:08.455Z,17.56
2022-10-17T02:08:43.224Z,17.54
2022-10-17T02:10:25.521Z,17.54
2022-10-17T02:12:11.651Z,17.51
2022-10-17T02:14:06.659Z,17.49
2022-10-17T02:15:54.792Z,17.49
2022-10-17T02:17:38.724Z,17.46
2022-10-17T02:19:28.253Z,17.45
2022-10-17T02:21:06.933Z,17.44
2022-10-17T02:22:49.217Z,17.45
2022-10-17T02:24:30.198Z,17.44
2022-10-17T02:26:10.328Z,17.42
2022-10-17T02:27:48.760Z,17.42
2022-10-17T02:29:26.460Z,17.43
2022-10-17T02:31:02.533Z,17.43
2022-10-17T02:32:40.114Z,17.44
2022-10-17T02:34:18.354Z,17.45
2022-10-17T02:35:54.918Z,17.47
2022-10-17T02:37:30.198Z,17.51
2022-10-17T02:39:04.161Z,17.50
2022-10-17T02:40:37.316Z,17.50
2022-10-17T02:42:11.908Z,17.51
2022-10-17T02:43:45.727Z,17.50
2022-10-17T02:45:17.993Z,17.50
2022-10-17T02:46:56.642Z,17.50
2022-10-17T02:48:35.514Z,17.47
2022-10-17T02:50:09.291Z,17.48
2022-10-17T02:51:47.412Z,17.44
2022-10-17T02:53:29.351Z,17.44
2022-10-17T02:55:06.206Z,17.43
2022-10-17T02:56:43.560Z,17.42
2022-10-17T02:58:21.272Z,17.38
2022-10-17T02:59:54.503Z,17.38
2022-10-17T03:01:31.754Z,17.38
2022-10-17T03:03:18.962Z,17.39
2022-10-17T03:04:50.631Z,17.38
2022-10-17T03:06:23.602Z,17.37
2022-10-17T03:07:56.266Z,17.37
2022-10-17T03:09:29.848Z,17.38
2022-10-17T03:11:02.547Z,17.36
2022-10-17T03:12:34.952Z,17.35
2022-10-17T03:14:06.700Z,17.34
2022-10-17T03:15:38.310Z,17.33
2022-10-17T03:17:09.989Z,17.33
2022-10-17T03:18:44.354Z,17.33
2022-10-17T03:20:18.268Z,17.35
2022-10-17T03:21:51.791Z,17.37
2022-10-17T03:23:23.460Z,17.37
2022-10-17T03:24:55.307Z,17.36
2022-10-17T03:26:27.051Z,17.34
2022-10-17T03:28:00.427Z,17.32
2022-10-17T03:29:32.221Z,17.32
2022-10-17T03:31:07.548Z,17.32
2022-10-17T03:32:39.288Z,17.32
2022-10-17T03:34:10.978Z,17.31
2022-10-17T03:35:42.879Z,17.32
2022-10-17T03:37:16.366Z,17.33
2022-10-17T03:38:49.134Z,17.31
2022-10-17T03:40:22.289Z,17.31
2022-10-17T03:41:53.973Z,17.30
2022-10-17T03:43:25.642Z,17.28
2022-10-17T03:44:57.265Z,17.27
2022-10-17T03:46:29.195Z,17.26
2022-10-17T03:48:02.521Z,17.27
2022-10-17T03:49:35.160Z,17.27
2022-10-17T03:51:08.680Z,17.28
2022-10-17T03:52:48.441Z,17.27
2022-10-17T03:54:20.089Z,17.25
2022-10-17T03:55:51.973Z,17.25
2022-10-17T03:57:23.748Z,17.25
2022-10-17T03:58:56.064Z,17.27
2022-10-17T04:00:27.713Z,17.30
2022-10-17T04:02:02.964Z,17.30
2022-10-17T04:03:34.645Z,17.31
2022-10-17T04:05:08.200Z,17.32
2022-10-17T04:06:39.961Z,17.32
2022-10-17T04:08:13.136Z,17.33
2022-10-17T04:10:03.781Z,17.33
2022-10-17T04:11:36.049Z,17.33
2022-10-17T04:13:08.533Z,17.33
2022-10-17T04:14:40.213Z,17.36
2022-10-17T04:16:14.668Z,17.38
2022-10-17T04:17:54.519Z,17.38
2022-10-17T04:19:26.891Z,17.37
2022-10-17T04:21:01.499Z,17.37
2022-10-17T04:22:33.250Z,17.37
2022-10-17T04:24:06.909Z,17.38
2022-10-17T04:26:16.847Z,17.40
2022-10-17T04:27:49.119Z,17.38
2022-10-17T04:29:21.727Z,17.40
2022-10-17T04:30:57.269Z,17.42
2022-10-17T04:32:29.346Z,17.39
2022-10-17T04:34:14.130Z,17.38
2022-10-17T04:35:55.448Z,17.40
2022-10-17T04:37:29.138Z,17.41
2022-10-17T04:39:03.420Z,17.40
2022-10-17T04:40:36.729Z,17.42
2022-10-17T04:42:09.272Z,17.43
2022-10-17T04:43:43.424Z,17.43
2022-10-17T04:45:16.252Z,17.43
2022-10-17T04:46:48.376Z,17.45
2022-10-17T04:48:20.478Z,17.46
2022-10-17T04:49:53.571Z,17.43
2022-10-17T04:51:27.209Z,17.43
2022-10-17T04:53:14.773Z,17.45
2022-10-17T04:54:46.467Z,17.44
2022-10-17T04:56:22.284Z,17.47
2022-10-17T04:57:54.377Z,17.47
2022-10-17T04:59:26.451Z,17.49
2022-10-17T05:01:12.104Z,17.50
2022-10-17T05:02:45.868Z,17.53
2022-10-17T05:04:19.940Z,17.56
2022-10-17T05:05:55.551Z,17.57
2022-10-17T05:07:27.556Z,17.59
2022-10-17T05:09:07.777Z,17.62
2022-10-17T05:10:41.261Z,17.64
2022-10-17T05:12:14.284Z,17.65
2022-10-17T05:13:52.764Z,17.65
2022-10-17T05:15:24.586Z,17.67
2022-10-17T05:16:58.240Z,17.66
2022-10-17T05:18:30.251Z,17.66
2022-10-17T05:20:01.863Z,17.66
2022-10-17T05:21:37.201Z,17.66
2022-10-17T05:23:09.688Z,17.63
2022-10-17T05:24:45.204Z,17.62
2022-10-17T05:26:17.493Z,17.62
2022-10-17T05:27:50.753Z,17.61
2022-10-17T05:29:22.962Z,17.60
2022-10-17T05:31:03.214Z,17.61
2022-10-17T05:32:35.910Z,17.62
2022-10-17T05:34:09.128Z,17.63
2022-10-17T05:35:43.462Z,17.62
2022-10-17T05:37:15.165Z,17.65
2022-10-17T05:38:52.058Z,17.66
2022-10-17T05:40:23.710Z,17.69
2022-10-17T05:41:57.684Z,17.71
2022-10-17T05:43:32.184Z,17.71
2022-10-17T05:45:04.660Z,17.70
2022-10-17T05:46:36.980Z,17.69
2022-10-17T05:48:09.350Z,17.69
2022-10-17T05:49:48.370Z,17.69
2022-10-17T05:51:24.757Z,17.68
2022-10-17T05:52:58.106Z,17.69
2022-10-17T05:54:29.720Z,17.69
2022-10-17T05:56:03.298Z,17.68
2022-10-17T05:57:36.452Z,17.69
2022-10-17T05:59:12.173Z,17.67
2022-10-17T06:01:07.085Z,17.66
2022-10-17T06:02:41.106Z,17.64
2022-10-17T06:04:14.258Z,17.63
2022-10-17T06:05:46.061Z,17.62
2022-10-17T06:07:17.701Z,17.64
2022-10-17T06:08:49.846Z,17.66
2022-10-17T06:10:26.602Z,17.66
2022-10-17T06:11:59.518Z,17.67
2022-10-17T06:13:31.240Z,17.70
2022-10-17T06:15:08.381Z,17.72
2022-10-17T06:16:40.214Z,17.73
2022-10-17T06:18:12.156Z,17.73
2022-10-17T06:19:44.840Z,17.73
2022-10-17T06:21:26.292Z,17.73
2022-10-17T06:23:05.344Z,17.74
2022-10-17T06:24:55.382Z,17.73
2022-10-17T06:26:27.917Z,17.75
2022-10-17T06:27:59.774Z,17.72
2022-10-17T06:29:32.230Z,17.72
2022-10-17T06:31:09.959Z,17.76
2022-10-17T06:32:41.692Z,17.80
2022-10-17T06:34:13.536Z,17.80
2022-10-17T06:35:51.733Z,17.79
2022-10-17T06:37:23.452Z,17.80
2022-10-17T06:38:55.135Z,17.80
2022-10-17T06:40:47.140Z,17.79
2022-10-17T06:42:18.806Z,17.77
2022-10-17T06:43:53.964Z,17.82
2022-10-17T06:45:46.137Z,17.84
2022-10-17T06:47:25.143Z,17.83
2022-10-17T06:49:01.060Z,17.81
2022-10-17T06:50:51.125Z,17.79
2022-10-17T06:52:31.995Z,17.78
2022-10-17T06:54:22.361Z,17.80
2022-10-17T06:56:10.371Z,17.84
2022-10-17T06:57:58.123Z,17.85
2022-10-17T06:59:46.960Z,17.89
2022-10-17T07:01:24.033Z,17.91
2022-10-17T07:03:01.059Z,17.98
2022-10-17T07:04:33.011Z,18.03
2022-10-17T07:06:05.375Z,18.08
2022-10-17T07:07:40.118Z,18.10
2022-10-17T07:09:14.965Z,18.10
2022-10-17T07:10:46.817Z,18.12
2022-10-17T07:12:18.440Z,18.14
2022-10-17T07:13:50.312Z,18.16
2022-10-17T07:15:22.213Z,18.18
2022-10-17T07:16:54.072Z,18.19
2022-10-17T07:18:30.141Z,18.22
2022-10-17T07:20:01.827Z,18.25
2022-10-17T07:21:38.955Z,18.29
2022-10-17T07:23:12.359Z,18.33
2022-10-17T07:24:44.034Z,18.38
2022-10-17T07:26:23.813Z,18.36
2022-10-17T07:27:55.929Z,18.40
2022-10-17T07:29:27.801Z,18.40
2022-10-17T07:31:24.242Z,18.41
2022-10-17T07:32:56.029Z,18.46
2022-10-17T07:34:31.289Z,18.52
2022-10-17T07:36:05.640Z,18.54
2022-10-17T07:37:38.169Z,18.58
2022-10-17T07:39:10.653Z,18.57
2022-10-17T07:40:43.400Z,18.61
2022-10-17T07:42:15.362Z,18.64
2022-10-17T07:43:47.027Z,18.69
2022-10-17T07:45:20.565Z,18.72
2022-10-17T07:46:52.307Z,18.75
2022-10-17T07:48:24.859Z,18.81
2022-10-17T07:49:58.003Z,18.87
2022-10-17T07:51:29.645Z,18.89
2022-10-17T07:53:01.263Z,18.93
2022-10-17T07:54:32.943Z,18.97
2022-10-17T07:56:06.591Z,19.02
2022-10-17T07:57:40.138Z,19.03
2022-10-17T07:59:11.752Z,19.11
2022-10-17T08:00:43.535Z,19.25
2022-10-17T08:02:20.867Z,19.36
2022-10-17T08:03:52.512Z,19.43
2022-10-17T08:05:25.556Z,19.54
2022-10-17T08:07:11.600Z,19.62
2022-10-17T08:08:49.015Z,19.69
2022-10-17T08:10:21.329Z,19.76
2022-10-17T08:11:53.996Z,19.86
2022-10-17T08:13:25.823Z,19.99
2022-10-17T08:14:57.455Z,20.08
2022-10-17T08:16:29.061Z,20.17
2022-10-17T08:18:00.745Z,20.17
2022-10-17T08:19:32.658Z,20.21
2022-10-17T08:21:08.251Z,20.25
2022-10-17T08:22:40.001Z,20.28
2022-10-17T08:24:11.645Z,20.30
2022-10-17T08:25:43.308Z,20.28
2022-10-17T08:27:15.015Z,20.23
2022-10-17T08:28:47.494Z,20.23
2022-10-17T08:30:19.201Z,20.20
2022-10-17T08:31:54.102Z,20.18
2022-10-17T08:33:30.240Z,20.12
2022-10-17T08:35:02.340Z,20.08
2022-10-17T08:36:35.368Z,19.98
2022-10-17T08:38:09.055Z,19.95
2022-10-17T08:39:43.225Z,19.95
2022-10-17T08:41:27.513Z,19.96
2022-10-17T08:43:27.117Z,19.95
2022-10-17T08:45:11.145Z,19.99
2022-10-17T08:46:47.765Z,20.04
2022-10-17T08:48:23.251Z,20.09
2022-10-17T08:49:59.264Z,20.11
2022-10-17T08:51:33.801Z,20.13
2022-10-17T08:53:15.880Z,20.15
2022-10-17T08:54:48.572Z,20.15
2022-10-17T08:56:44.018Z,20.21
2022-10-17T08:58:20.008Z,20.27
2022-10-17T08:59:53.476Z,20.35
2022-10-17T09:01:33.958Z,20.40
2022-10-17T09:03:18.684Z,20.43
2022-10-17T09:05:07.784Z,20.49
2022-10-17T09:06:45.443Z,20.54
2022-10-17T09:08:33.437Z,20.61
2022-10-17T09:10:11.994Z,20.75
2022-10-17T09:11:56.545Z,20.88
2022-10-17T09:13:45.884Z,20.96
2022-10-17T09:15:40.251Z,21.05
2022-10-17T09:17:23.999Z,21.13
2022-10-17T09:19:03.497Z,21.21
2022-10-17T09:20:41.481Z,21.23
2022-10-17T09:22:18.521Z,21.26
2022-10-17T09:23:59.703Z,21.26
2022-10-17T09:25:44.115Z,21.28
2022-10-17T09:27:22.083Z,21.28
2022-10-17T09:28:59.109Z,21.27
2022-10-17T09:30:45.037Z,21.24
2022-10-17T09:32:22.723Z,21.24
2022-10-17T09:33:57.283Z,21.26
2022-10-17T09:35:30.175Z,21.27
2022-10-17T09:37:02.940Z,21.29
2022-10-17T09:38:41.368Z,21.32
2022-10-17T09:40:22.017Z,21.35
2022-10-17T09:41:55.715Z,21.38
2022-10-17T09:43:28.108Z,21.40
2022-10-17T09:45:16.423Z,21.39
2022-10-17T09:47:15.396Z,21.41
2022-10-17T09:48:53.334Z,21.40
2022-10-17T09:50:28.669Z,21.38
2022-10-17T09:52:01.776Z,21.36
2022-10-17T09:53:36.569Z,21.38
2022-10-17T09:55:20.132Z,21.38
2022-10-17T09:56:59.847Z,21.36
2022-10-17T09:58:41.605Z,21.25
2022-10-17T10:00:21.259Z,21.26
2022-10-17T10:02:07.141Z,21.17
2022-10-17T10:03:38.804Z,21.18
2022-10-17T10:05:17.406Z,21.15
2022-10-17T10:07:02.752Z,21.11
2022-10-17T10:08:37.811Z,21.11
2022-10-17T10:10:29.996Z,21.07
2022-10-17T10:12:05.199Z,21.07
2022-10-17T10:13:36.921Z,21.09
2022-10-17T10:15:33.232Z,21.13
2022-10-17T10:17:06.807Z,21.14
2022-10-17T10:18:38.457Z,21.14
2022-10-17T10:20:29.583Z,21.16
2022-10-17T10:22:03.020Z,21.20
2022-10-17T10:23:39.880Z,21.26
2022-10-17T10:25:16.743Z,21.30
2022-10-17T10:26:50.937Z,21.31
2022-10-17T10:28:27.177Z,21.32
2022-10-17T10:29:59.295Z,21.34
2022-10-17T10:31:36.485Z,21.37
2022-10-17T10:33:12.170Z,21.36
2022-10-17T10:34:50.363Z,21.38
2022-10-17T10:36:23.290Z,21.42
2022-10-17T10:37:57.369Z,21.44
2022-10-17T10:39:43.303Z,21.49
2022-10-17T10:41:14.954Z,21.49
2022-10-17T10:42:50.524Z,21.54
2022-10-17T10:44:26.249Z,21.53
2022-10-17T10:45:58.270Z,21.52
2022-10-17T10:47:32.947Z,21.52
2022-10-17T10:49:05.038Z,21.52
2022-10-17T10:50:45.067Z,21.54
2022-10-17T10:52:25.099Z,21.56
2022-10-17T10:54:03.267Z,21.54
2022-10-17T10:55:40.245Z,21.54
2022-10-17T10:57:20.774Z,21.55
2022-10-17T10:58:57.704Z,21.56
2022-10-17T11:00:34.866Z,21.62
2022-10-17T11:02:15.795Z,21.65
2022-10-17T11:03:57.392Z,21.69
2022-10-17T11:05:41.156Z,21.72
2022-10-17T11:07:16.959Z,21.75
2022-10-17T11:08:52.436Z,21.75
2022-10-17T11:10:35.913Z,21.77
2022-10-17T11:12:14.739Z,21.80
2022-10-17T11:13:54.099Z,21.78
2022-10-17T11:15:35.029Z,21.81
2022-10-17T11:17:18.098Z,21.80
2022-10-17T11:18:55.282Z,21.81
2022-10-17T11:20:34.744Z,21.81
2022-10-17T11:22:12.627Z,21.81
2022-10-17T11:23:47.479Z,21.82
2022-10-17T11:25:32.110Z,21.79
2022-10-17T11:27:05.996Z,21.76
2022-10-17T11:28:37.786Z,21.74
2022-10-17T11:30:13.802Z,21.72
2022-10-17T11:31:52.417Z,21.72
2022-10-17T11:33:29.667Z,21.73
2022-10-17T11:35:06.373Z,21.78
2022-10-17T11:36:43.598Z,21.82
2022-10-17T11:38:22.530Z,21.87
2022-10-17T11:39:58.150Z,21.92
2022-10-17T11:41:35.346Z,21.96
2022-10-17T11:43:13.124Z,22.00
2022-10-17T11:44:44.875Z,22.02
2022-10-17T11:46:21.424Z,22.02
2022-10-17T11:48:01.199Z,22.04
2022-10-17T11:49:40.259Z,22.07
2022-10-17T11:53:11.811Z,22.06
2022-10-17T11:54:49.002Z,22.07
2022-10-17T11:56:32.265Z,22.07
2022-10-17T11:58:23.063Z,22.04
2022-10-17T12:00:12.047Z,21.98
2022-10-17T12:01:49.243Z,21.95
2022-10-17T12:03:36.226Z,21.92
2022-10-17T12:05:20.150Z,21.90
2022-10-17T12:07:09.303Z,21.84
2022-10-17T12:08:50.572Z,21.83
2022-10-17T12:10:34.045Z,21.81
2022-10-17T12:12:05.769Z,21.80
2022-10-17T12:13:49.301Z,21.78
2022-10-17T12:15:29.159Z,21.75
2022-10-17T12:17:01.644Z,21.75
2022-10-17T12:18:34.800Z,21.76
2022-10-17T12:20:34.889Z,21.76
2022-10-17T12:22:21.740Z,21.76
2022-10-17T12:23:55.121Z,21.76
2022-10-17T12:25:33.435Z,21.76
2022-10-17T12:27:39.835Z,21.74
2022-10-17T12:29:27.236Z,21.71
2022-10-17T12:31:01.732Z,21.68
2022-10-17T12:32:46.895Z,21.65
2022-10-17T12:34:26.860Z,21.59
2022-10-17T12:36:46.373Z,21.57
2022-10-17T12:38:26.775Z,21.56
2022-10-17T12:39:58.404Z,21.56
2022-10-17T12:41:53.424Z,21.55
2022-10-17T12:43:46.844Z,21.54
2022-10-17T12:45:48.526Z,21.51
2022-10-17T12:47:38.971Z,21.44
2022-10-17T12:49:22.282Z,21.42
2022-10-17T12:51:30.654Z,21.41
2022-10-17T12:53:05.948Z,21.44
2022-10-17T12:54:47.681Z,21.45
2022-10-17T12:56:34.158Z,21.47
2022-10-17T12:58:12.794Z,21.48
2022-10-17T12:59:45.188Z,21.46
2022-10-17T13:01:24.495Z,21.48
2022-10-17T13:03:02.073Z,21.43
2022-10-17T13:04:36.661Z,21.48
2022-10-17T13:06:19.526Z,21.51
2022-10-17T13:07:53.123Z,21.54
2022-10-17T13:09:28.948Z,21.59
2022-10-17T13:11:02.215Z,21.65
2022-10-17T13:12:41.226Z,21.67
2022-10-17T13:14:15.215Z,21.70
2022-10-17T13:15:47.970Z,21.71
2022-10-17T13:17:25.801Z,21.75
2022-10-17T13:18:57.504Z,21.77
2022-10-17T13:20:31.881Z,21.78
2022-10-17T13:22:19.453Z,21.75
2022-10-17T13:23:53.057Z,21.76
2022-10-17T13:25:26.997Z,21.77
2022-10-17T13:26:59.264Z,21.78
2022-10-17T13:28:32.413Z,21.77
2022-10-17T13:30:24.771Z,21.76
2022-10-17T13:32:01.402Z,21.77
2022-10-17T13:33:35.803Z,21.77
2022-10-17T13:35:10.709Z,21.78
2022-10-17T13:36:48.528Z,21.80
2022-10-17T13:38:25.980Z,21.83
2022-10-17T13:40:02.926Z,21.86
2022-10-17T13:41:39.714Z,21.89
2022-10-17T13:43:16.325Z,21.92
2022-10-17T13:44:48.253Z,21.96
2022-10-17T13:46:37.545Z,21.97
2022-10-17T13:48:19.965Z,21.96
2022-10-17T13:49:55.239Z,21.98
2022-10-17T13:51:27.837Z,22.01
2022-10-17T13:53:07.896Z,22.05
2022-10-17T13:54:42.457Z,22.10
2022-10-17T13:56:29.679Z,22.15
2022-10-17T13:58:16.241Z,22.17
2022-10-17T13:59:50.409Z,22.21
2022-10-17T14:01:22.739Z,22.26
2022-10-17T14:02:54.460Z,22.27
2022-10-17T14:04:26.272Z,22.28
2022-10-17T14:06:14.046Z,22.25
2022-10-17T14:08:10.483Z,22.30
2022-10-17T14:09:46.652Z,22.30
2022-10-17T14:11:29.079Z,22.34
2022-10-17T14:13:01.728Z,22.38
2022-10-17T14:14:51.652Z,22.37
2022-10-17T14:16:33.972Z,22.34
2022-10-17T14:18:08.422Z,22.33
2022-10-17T14:19:40.292Z,22.33
2022-10-17T14:21:37.144Z,22.29
2022-10-17T14:23:29.444Z,22.29
2022-10-17T14:25:03.692Z,22.29
2022-10-17T14:26:47.048Z,22.30
2022-10-17T14:28:22.591Z,22.32
2022-10-17T14:30:00.580Z,22.32
2022-10-17T14:31:34.030Z,22.33
2022-10-17T14:33:08.511Z,22.35
2022-10-17T14:34:40.830Z,22.36
2022-10-17T14:36:13.542Z,22.35
2022-10-17T14:37:47.723Z,22.36
2022-10-17T14:39:22.628Z,22.34
2022-10-17T14:41:20.932Z,22.33
2022-10-17T14:42:55.101Z,22.35
2022-10-17T14:44:30.301Z,22.38
2022-10-17T14:46:02.643Z,22.39
2022-10-17T14:47:50.247Z,22.39
2022-10-17T14:49:28.427Z,22.40
2022-10-17T14:51:08.412Z,22.38
2022-10-17T14:52:40.772Z,22.31
2022-10-17T14:54:24.523Z,22.30
2022-10-17T14:55:59.294Z,22.27
2022-10-17T14:57:44.147Z,22.24
2022-10-17T14:59:30.178Z,22.15
2022-10-17T15:01:09.513Z,22.08
2022-10-17T15:02:41.450Z,22.08
2022-10-17T15:04:13.084Z,21.98
2022-10-17T15:05:44.752Z,21.95
2022-10-17T15:07:17.610Z,21.86
2022-10-17T15:08:49.331Z,21.81
2022-10-17T15:10:30.662Z,21.76
2022-10-17T15:12:06.949Z,21.74
2022-10-17T15:13:43.290Z,21.72
2022-10-17T15:15:17.122Z,21.70
2022-10-17T15:16:48.775Z,21.63
2022-10-17T15:18:20.428Z,21.48
2022-10-17T15:19:52.170Z,21.42
2022-10-17T15:21:37.587Z,21.42
2022-10-17T15:23:12.398Z,21.47
2022-10-17T15:24:46.102Z,21.52
2022-10-17T15:26:20.074Z,21.53
2022-10-17T15:27:53.708Z,21.55
2022-10-17T15:29:25.719Z,21.52
2022-10-17T15:30:57.377Z,21.48
2022-10-17T15:32:29.031Z,21.46
2022-10-17T15:34:00.718Z,21.39
2022-10-17T15:35:32.430Z,21.37
2022-10-17T15:37:06.200Z,21.35
2022-10-17T15:38:37.892Z,21.38
2022-10-17T15:40:14.558Z,21.38
2022-10-17T15:41:47.978Z,21.28
2022-10-17T15:43:21.039Z,21.23
2022-10-17T15:44:52.789Z,21.25
2022-10-17T15:46:26.850Z,21.24
2022-10-17T15:48:04.182Z,21.25
2022-10-17T15:49:35.836Z,21.28
2022-10-17T15:51:07.971Z,21.27
2022-10-17T15:52:39.624Z,21.23
2022-10-17T15:55:50.878Z,21.22
2022-10-17T15:57:26.200Z,21.24
2022-10-17T15:59:02.158Z,21.21
2022-10-17T16:00:33.827Z,21.22
2022-10-17T16:02:12.579Z,21.21
2022-10-17T16:03:47.279Z,21.14
2022-10-17T16:05:25.482Z,21.14
2022-10-17T16:06:58.511Z,21.15
2022-10-17T16:08:30.186Z,21.16
2022-10-17T16:10:01.832Z,21.15
2022-10-17T16:11:36.213Z,21.13
2022-10-17T16:13:15.164Z,21.11
2022-10-17T16:14:48.213Z,21.10
2022-10-17T16:16:22.117Z,21.12
2022-10-17T16:17:56.924Z,21.11
2022-10-17T16:19:29.944Z,21.08
2022-10-17T16:21:01.712Z,21.05
2022-10-17T16:22:36.620Z,20.98
2022-10-17T16:24:10.315Z,20.93
2022-10-17T16:25:42.166Z,20.87
2022-10-17T16:27:13.905Z,20.80
2022-10-17T16:28:46.263Z,20.77
2022-10-17T16:31:57.005Z,20.73
2022-10-17T16:33:28.764Z,20.70
2022-10-17T16:35:00.536Z,20.69
2022-10-17T16:36:32.758Z,20.71
2022-10-17T16:38:04.663Z,20.72
2022-10-17T16:39:36.337Z,20.71
2022-10-17T16:41:18.897Z,20.69
2022-10-17T16:42:50.944Z,20.66
2022-10-17T16:44:22.687Z,20.62
2022-10-17T16:45:55.702Z,20.58
2022-10-17T16:47:27.327Z,20.53
2022-10-17T16:48:59.567Z,20.45
2022-10-17T16:50:35.293Z,20.45
2022-10-17T16:52:07.003Z,20.41
2022-10-17T16:53:44.831Z,20.30
2022-10-17T16:55:18.905Z,20.27
2022-10-17T16:56:50.618Z,20.28
2022-10-17T16:58:24.292Z,20.30
2022-10-17T16:59:56.006Z,20.33
2022-10-17T17:01:32.041Z,20.33
2022-10-17T17:03:04.443Z,20.34
2022-10-17T17:04:36.240Z,20.33
2022-10-17T17:06:09.387Z,20.32
2022-10-17T17:07:41.419Z,20.30
2022-10-17T17:09:13.540Z,20.29
2022-10-17T17:10:45.834Z,20.24
2022-10-17T17:12:17.501Z,20.22
2022-10-17T17:13:49.764Z,20.19
2022-10-17T17:15:21.461Z,20.19
2022-10-17T17:16:54.519Z,20.20
2022-10-17T17:18:26.193Z,20.20
2022-10-17T17:19:57.859Z,20.21
2022-10-17T17:21:29.580Z,20.22
2022-10-17T17:23:01.281Z,20.23
2022-10-17T17:24:32.979Z,20.24
2022-10-17T17:26:06.815Z,20.23
2022-10-17T17:27:38.497Z,20.21
2022-10-17T17:29:12.141Z,20.20
2022-10-17T17:30:43.779Z,20.17
2022-10-17T17:32:16.868Z,20.13
2022-10-17T17:33:49.356Z,20.05
2022-10-17T17:35:21.908Z,20.00
2022-10-17T17:36:53.621Z,20.00
2022-10-17T17:38:25.515Z,20.00
2022-10-17T17:39:57.158Z,20.02
2022-10-17T17:41:29.214Z,20.02
2022-10-17T17:44:37.588Z,20.03
2022-10-17T17:46:10.101Z,20.03
2022-10-17T17:47:43.124Z,20.01
2022-10-17T17:49:14.889Z,19.99
2022-10-17T17:50:46.990Z,19.95
2022-10-17T17:52:18.683Z,19.94
2022-10-17T17:53:52.399Z,19.87
2022-10-17T17:55:24.313Z,19.79
2022-10-17T17:56:56.009Z,19.76
2022-10-17T17:58:30.604Z,19.70
2022-10-17T18:00:07.574Z,19.65
2022-10-17T18:01:39.679Z,19.63
2022-10-17T18:03:12.969Z,19.62
2022-10-17T18:04:44.657Z,19.61
2022-10-17T18:06:17.056Z,19.63
2022-10-17T18:07:48.862Z,19.64
2022-10-17T18:09:21.365Z,19.64
2022-10-17T18:10:56.342Z,19.66
2022-10-17T18:12:29.041Z,19.66
2022-10-17T18:14:02.668Z,19.66
2022-10-17T18:15:34.366Z,19.66
2022-10-17T18:17:06.129Z,19.69
2022-10-17T18:18:40.384Z,19.71
2022-10-17T18:20:12.409Z,19.73
2022-10-17T18:21:44.355Z,19.74
2022-10-17T18:23:17.701Z,19.73
2022-10-17T18:24:49.718Z,19.68
2022-10-17T18:26:21.446Z,19.66
2022-10-17T18:27:53.062Z,19.64
2022-10-17T18:29:24.880Z,19.63
2022-10-17T18:30:58.138Z,19.62
2022-10-17T18:32:30.515Z,19.62
2022-10-17T18:34:05.136Z,19.63
2022-10-17T18:35:36.777Z,19.61
2022-10-17T18:37:09.289Z,19.55
2022-10-17T18:38:41.887Z,19.49
2022-10-17T18:40:13.575Z,19.46
2022-10-17T18:41:45.336Z,19.41
2022-10-17T18:43:17.050Z,19.35
2022-10-17T18:44:49.777Z,19.32
2022-10-17T18:46:23.392Z,19.27
2022-10-17T18:47:55.033Z,19.23
2022-10-17T18:49:28.225Z,19.19
2022-10-17T18:51:00.096Z,19.17
2022-10-17T18:52:31.876Z,19.18
2022-10-17T18:54:04.024Z,19.22
2022-10-17T18:55:39.042Z,19.22
2022-10-17T18:57:10.785Z,19.22
2022-10-17T18:58:43.243Z,19.22
2022-10-17T19:00:15.560Z,19.20
2022-10-17T19:01:47.613Z,19.24
2022-10-17T19:03:19.433Z,19.25
2022-10-17T19:04:52.564Z,19.22
2022-10-17T19:06:28.033Z,19.23
2022-10-17T19:07:59.629Z,19.26
2022-10-17T19:09:31.619Z,19.31
2022-10-17T19:11:05.829Z,19.33
2022-10-17T19:12:37.457Z,19.33
2022-10-17T19:14:13.980Z,19.32
2022-10-17T19:15:45.870Z,19.33
2022-10-17T19:17:17.489Z,19.32
2022-10-17T19:18:50.301Z,19.27
2022-10-17T19:20:23.374Z,19.29
2022-10-17T19:21:55.813Z,19.30
2022-10-17T19:23:27.570Z,19.31
2022-10-17T19:24:59.230Z,19.32
2022-10-17T19:26:33.208Z,19.26
2022-10-17T19:28:05.143Z,19.19
2022-10-17T19:29:36.821Z,19.14
2022-10-17T19:31:09.078Z,19.09
2022-10-17T19:32:41.257Z,19.06
2022-10-17T19:34:14.747Z,19.02
2022-10-17T19:35:55.240Z,18.98
2022-10-17T19:37:26.976Z,18.96
2022-10-17T19:38:58.925Z,18.97
2022-10-17T19:40:30.602Z,19.02
2022-10-17T19:42:06.049Z,19.04
2022-10-17T19:43:40.115Z,19.04
2022-10-17T19:45:11.804Z,19.03
2022-10-17T19:46:48.981Z,19.06
2022-10-17T19:48:20.647Z,19.11
2022-10-17T19:49:52.308Z,19.13
2022-10-17T19:51:26.309Z,19.16
2022-10-17T19:52:58.121Z,19.17
2022-10-17T19:54:29.934Z,19.15
2022-10-17T19:56:01.803Z,19.13
2022-10-17T19:57:36.185Z,19.11
2022-10-17T19:59:08.406Z,19.09
2022-10-17T20:00:46.559Z,19.11
2022-10-17T20:02:18.248Z,19.11
2022-10-17T20:03:50.214Z,19.10
2022-10-17T20:05:25.914Z,19.10
2022-10-17T20:07:00.363Z,19.09
2022-10-17T20:08:32.462Z,19.05
2022-10-17T20:10:04.774Z,18.99
2022-10-17T20:11:36.519Z,18.94
2022-10-17T20:13:08.681Z,18.89
2022-10-17T20:14:41.225Z,18.85
2022-10-17T20:16:14.782Z,18.81
2022-10-17T20:17:46.483Z,18.76
2022-10-17T20:19:19.480Z,18.71
2022-10-17T20:20:51.445Z,18.67
2022-10-17T20:22:24.608Z,18.63
2022-10-17T20:23:58.393Z,18.59
2022-10-17T20:25:30.101Z,18.55
2022-10-17T20:27:01.774Z,18.52
2022-10-17T20:28:33.911Z,18.50
2022-10-17T20:30:06.706Z,18.47
2022-10-17T20:31:39.371Z,18.44
2022-10-17T20:33:13.744Z,18.43
2022-10-17T20:34:45.462Z,18.39
2022-10-17T20:36:20.105Z,18.39
2022-10-17T20:37:53.172Z,18.39
2022-10-17T20:39:24.876Z,18.38
2022-10-17T20:41:00.631Z,18.39
2022-10-17T20:42:32.888Z,18.40
2022-10-17T20:44:06.750Z,18.45